Search METAR Data

METAR Data for ENGM:

ENGM 241550Z 08007KT 360V110 9999 -SHRA FEW027 BKN055 05/M00 Q1006 NOSIG